sensor_id;sensor_type;location;lat;lon;timestamp;P1;durP1;ratioP1;P2;durP2;ratioP2
2624;SDS011;1322;53.256;10.386;2023-07-31T00:00:44;4.10;;;2.10;;
2624;SDS011;1322;53.256;10.386;2023-07-31T00:03:11;3.60;;;1.77;;
2624;SDS011;1322;53.256;10.386;2023-07-31T00:05:37;2.50;;;1.70;;
2624;SDS011;1322;53.256;10.386;2023-07-31T00:08:02;3.90;;;2.13;;
2624;SDS011;1322;53.256;10.386;2023-07-31T00:10:28;3.03;;;1.63;;
2624;SDS011;1322;53.256;10.386;2023-07-31T00:12:53;7.33;;;3.00;;
2624;SDS011;1322;53.256;10.386;2023-07-31T00:15:19;4.33;;;1.50;;
2624;SDS011;1322;53.256;10.386;2023-07-31T00:17:45;5.70;;;1.90;;
2624;SDS011;1322;53.256;10.386;2023-07-31T00:20:10;3.47;;;1.90;;
2624;SDS011;1322;53.256;10.386;2023-07-31T00:22:36;4.60;;;2.53;;
2624;SDS011;1322;53.256;10.386;2023-07-31T00:25:02;5.13;;;2.60;;
2624;SDS011;1322;53.256;10.386;2023-07-31T00:27:27;4.10;;;2.00;;
2624;SDS011;1322;53.256;10.386;2023-07-31T00:29:53;6.43;;;1.90;;
2624;SDS011;1322;53.256;10.386;2023-07-31T00:32:18;3.67;;;1.83;;
2624;SDS011;1322;53.256;10.386;2023-07-31T00:34:44;6.00;;;2.07;;
2624;SDS011;1322;53.256;10.386;2023-07-31T00:37:09;4.97;;;2.00;;
2624;SDS011;1322;53.256;10.386;2023-07-31T00:39:35;4.63;;;2.00;;
2624;SDS011;1322;53.256;10.386;2023-07-31T00:42:01;5.07;;;2.00;;
2624;SDS011;1322;53.256;10.386;2023-07-31T00:44:27;3.63;;;2.03;;
2624;SDS011;1322;53.256;10.386;2023-07-31T00:46:53;5.83;;;2.03;;
2624;SDS011;1322;53.256;10.386;2023-07-31T00:49:19;4.60;;;2.30;;
2624;SDS011;1322;53.256;10.386;2023-07-31T00:51:46;2.73;;;2.13;;
2624;SDS011;1322;53.256;10.386;2023-07-31T00:54:12;3.50;;;2.00;;
2624;SDS011;1322;53.256;10.386;2023-07-31T00:56:37;5.37;;;2.20;;
2624;SDS011;1322;53.256;10.386;2023-07-31T00:59:04;4.57;;;2.00;;
2624;SDS011;1322;53.256;10.386;2023-07-31T01:01:30;2.73;;;2.00;;
2624;SDS011;1322;53.256;10.386;2023-07-31T01:03:55;5.70;;;2.60;;
2624;SDS011;1322;53.256;10.386;2023-07-31T01:06:36;4.83;;;2.20;;
2624;SDS011;1322;53.256;10.386;2023-07-31T01:12:14;6.50;;;2.33;;
2624;SDS011;1322;53.256;10.386;2023-07-31T01:14:50;6.27;;;2.77;;
2624;SDS011;1322;53.256;10.386;2023-07-31T01:17:35;4.20;;;1.87;;
2624;SDS011;1322;53.256;10.386;2023-07-31T01:20:02;9.40;;;3.43;;
2624;SDS011;1322;53.256;10.386;2023-07-31T01:22:49;11.80;;;3.03;;
2624;SDS011;1322;53.256;10.386;2023-07-31T01:28:18;7.77;;;2.70;;
2624;SDS011;1322;53.256;10.386;2023-07-31T01:30:47;3.60;;;2.57;;
2624;SDS011;1322;53.256;10.386;2023-07-31T01:33:14;4.67;;;1.93;;
2624;SDS011;1322;53.256;10.386;2023-07-31T01:35:44;6.07;;;2.87;;
2624;SDS011;1322;53.256;10.386;2023-07-31T01:38:11;6.40;;;2.10;;
2624;SDS011;1322;53.256;10.386;2023-07-31T01:40:40;6.37;;;2.07;;
2624;SDS011;1322;53.256;10.386;2023-07-31T01:43:06;6.80;;;2.67;;
2624;SDS011;1322;53.256;10.386;2023-07-31T01:45:32;5.20;;;2.77;;
2624;SDS011;1322;53.256;10.386;2023-07-31T01:47:58;3.63;;;2.30;;
2624;SDS011;1322;53.256;10.386;2023-07-31T01:50:23;4.60;;;2.60;;
2624;SDS011;1322;53.256;10.386;2023-07-31T01:52:49;4.43;;;2.40;;
2624;SDS011;1322;53.256;10.386;2023-07-31T01:55:14;5.97;;;2.30;;
2624;SDS011;1322;53.256;10.386;2023-07-31T01:57:40;5.57;;;2.80;;
2624;SDS011;1322;53.256;10.386;2023-07-31T02:00:06;5.27;;;2.40;;
2624;SDS011;1322;53.256;10.386;2023-07-31T02:02:32;4.07;;;2.30;;
2624;SDS011;1322;53.256;10.386;2023-07-31T02:04:58;2.30;;;2.00;;
2624;SDS011;1322;53.256;10.386;2023-07-31T02:07:23;4.53;;;2.70;;
2624;SDS011;1322;53.256;10.386;2023-07-31T02:09:49;4.93;;;2.30;;
2624;SDS011;1322;53.256;10.386;2023-07-31T02:12:15;4.53;;;2.20;;
2624;SDS011;1322;53.256;10.386;2023-07-31T02:14:40;5.00;;;2.60;;
2624;SDS011;1322;53.256;10.386;2023-07-31T02:17:06;7.33;;;2.87;;
2624;SDS011;1322;53.256;10.386;2023-07-31T02:19:32;5.50;;;2.50;;
2624;SDS011;1322;53.256;10.386;2023-07-31T02:21:57;4.90;;;2.70;;
2624;SDS011;1322;53.256;10.386;2023-07-31T02:24:24;4.63;;;2.43;;
2624;SDS011;1322;53.256;10.386;2023-07-31T02:26:50;8.47;;;2.33;;
2624;SDS011;1322;53.256;10.386;2023-07-31T02:29:16;5.47;;;2.57;;
2624;SDS011;1322;53.256;10.386;2023-07-31T02:31:41;5.03;;;2.10;;
2624;SDS011;1322;53.256;10.386;2023-07-31T02:34:07;3.83;;;2.50;;
2624;SDS011;1322;53.256;10.386;2023-07-31T02:36:32;3.90;;;2.20;;
2624;SDS011;1322;53.256;10.386;2023-07-31T02:38:58;6.07;;;3.13;;
2624;SDS011;1322;53.256;10.386;2023-07-31T02:41:24;4.13;;;2.90;;
2624;SDS011;1322;53.256;10.386;2023-07-31T02:43:49;5.47;;;2.53;;
2624;SDS011;1322;53.256;10.386;2023-07-31T02:46:15;3.50;;;3.10;;
2624;SDS011;1322;53.256;10.386;2023-07-31T02:48:40;5.93;;;3.17;;
2624;SDS011;1322;53.256;10.386;2023-07-31T02:51:06;4.73;;;2.70;;
2624;SDS011;1322;53.256;10.386;2023-07-31T02:53:32;5.10;;;2.97;;
2624;SDS011;1322;53.256;10.386;2023-07-31T02:55:57;9.20;;;3.13;;
2624;SDS011;1322;53.256;10.386;2023-07-31T02:58:23;7.17;;;3.40;;
2624;SDS011;1322;53.256;10.386;2023-07-31T03:00:48;5.53;;;3.20;;
2624;SDS011;1322;53.256;10.386;2023-07-31T03:03:14;4.67;;;3.03;;
2624;SDS011;1322;53.256;10.386;2023-07-31T03:05:40;4.97;;;3.20;;
2624;SDS011;1322;53.256;10.386;2023-07-31T03:08:05;6.37;;;4.10;;
2624;SDS011;1322;53.256;10.386;2023-07-31T03:10:31;7.77;;;4.50;;
2624;SDS011;1322;53.256;10.386;2023-07-31T03:12:56;6.57;;;3.90;;
2624;SDS011;1322;53.256;10.386;2023-07-31T03:15:22;5.53;;;3.87;;
2624;SDS011;1322;53.256;10.386;2023-07-31T03:17:48;6.03;;;4.30;;
2624;SDS011;1322;53.256;10.386;2023-07-31T03:20:13;5.10;;;4.17;;
2624;SDS011;1322;53.256;10.386;2023-07-31T03:22:39;6.53;;;4.13;;
2624;SDS011;1322;53.256;10.386;2023-07-31T03:25:05;7.50;;;4.70;;
2624;SDS011;1322;53.256;10.386;2023-07-31T03:27:30;5.13;;;4.30;;
2624;SDS011;1322;53.256;10.386;2023-07-31T03:29:56;4.27;;;3.87;;
2624;SDS011;1322;53.256;10.386;2023-07-31T03:32:22;4.73;;;4.07;;
2624;SDS011;1322;53.256;10.386;2023-07-31T03:34:49;6.40;;;4.37;;
2624;SDS011;1322;53.256;10.386;2023-07-31T03:37:14;5.30;;;4.70;;
2624;SDS011;1322;53.256;10.386;2023-07-31T03:39:40;5.00;;;4.10;;
2624;SDS011;1322;53.256;10.386;2023-07-31T03:42:06;6.50;;;4.13;;
2624;SDS011;1322;53.256;10.386;2023-07-31T03:44:31;5.43;;;4.53;;
2624;SDS011;1322;53.256;10.386;2023-07-31T03:46:57;4.93;;;4.20;;
2624;SDS011;1322;53.256;10.386;2023-07-31T03:49:22;5.37;;;3.80;;
2624;SDS011;1322;53.256;10.386;2023-07-31T03:51:49;4.23;;;3.80;;
2624;SDS011;1322;53.256;10.386;2023-07-31T03:54:15;4.20;;;3.73;;
2624;SDS011;1322;53.256;10.386;2023-07-31T03:56:40;5.20;;;4.17;;
2624;SDS011;1322;53.256;10.386;2023-07-31T03:59:06;4.90;;;4.50;;
2624;SDS011;1322;53.256;10.386;2023-07-31T04:01:31;5.07;;;4.50;;
2624;SDS011;1322;53.256;10.386;2023-07-31T04:03:57;4.30;;;3.83;;
2624;SDS011;1322;53.256;10.386;2023-07-31T04:06:23;7.97;;;3.93;;
2624;SDS011;1322;53.256;10.386;2023-07-31T04:08:48;4.80;;;4.17;;
2624;SDS011;1322;53.256;10.386;2023-07-31T04:11:14;4.97;;;4.53;;
2624;SDS011;1322;53.256;10.386;2023-07-31T04:13:40;4.50;;;4.10;;
2624;SDS011;1322;53.256;10.386;2023-07-31T04:16:05;4.33;;;3.67;;
2624;SDS011;1322;53.256;10.386;2023-07-31T04:18:31;4.90;;;3.73;;
2624;SDS011;1322;53.256;10.386;2023-07-31T04:20:57;4.40;;;3.60;;
2624;SDS011;1322;53.256;10.386;2023-07-31T04:23:23;4.27;;;3.83;;
2624;SDS011;1322;53.256;10.386;2023-07-31T04:25:49;6.33;;;4.63;;
2624;SDS011;1322;53.256;10.386;2023-07-31T04:28:15;5.03;;;4.10;;
2624;SDS011;1322;53.256;10.386;2023-07-31T04:30:41;5.20;;;4.20;;
2624;SDS011;1322;53.256;10.386;2023-07-31T04:33:06;5.03;;;4.40;;
2624;SDS011;1322;53.256;10.386;2023-07-31T04:35:32;6.20;;;5.60;;
2624;SDS011;1322;53.256;10.386;2023-07-31T04:37:58;5.17;;;4.50;;
2624;SDS011;1322;53.256;10.386;2023-07-31T04:40:23;7.87;;;3.90;;
2624;SDS011;1322;53.256;10.386;2023-07-31T04:42:49;5.73;;;4.73;;
2624;SDS011;1322;53.256;10.386;2023-07-31T04:45:15;4.53;;;4.13;;
2624;SDS011;1322;53.256;10.386;2023-07-31T04:47:40;4.60;;;4.07;;
2624;SDS011;1322;53.256;10.386;2023-07-31T04:50:06;6.23;;;4.40;;
2624;SDS011;1322;53.256;10.386;2023-07-31T04:52:32;4.80;;;4.23;;
2624;SDS011;1322;53.256;10.386;2023-07-31T04:54:58;5.67;;;4.87;;
2624;SDS011;1322;53.256;10.386;2023-07-31T04:57:23;4.10;;;3.70;;
2624;SDS011;1322;53.256;10.386;2023-07-31T04:59:49;4.77;;;4.17;;
2624;SDS011;1322;53.256;10.386;2023-07-31T05:02:14;6.60;;;3.77;;
2624;SDS011;1322;53.256;10.386;2023-07-31T05:04:40;5.17;;;4.40;;
2624;SDS011;1322;53.256;10.386;2023-07-31T05:07:06;4.40;;;3.83;;
2624;SDS011;1322;53.256;10.386;2023-07-31T05:09:31;3.93;;;3.60;;
2624;SDS011;1322;53.256;10.386;2023-07-31T05:11:57;4.33;;;3.80;;
2624;SDS011;1322;53.256;10.386;2023-07-31T05:14:22;5.33;;;4.60;;
2624;SDS011;1322;53.256;10.386;2023-07-31T05:16:48;13.07;;;4.30;;
2624;SDS011;1322;53.256;10.386;2023-07-31T05:19:14;8.10;;;4.47;;
2624;SDS011;1322;53.256;10.386;2023-07-31T05:21:39;4.90;;;4.40;;
2624;SDS011;1322;53.256;10.386;2023-07-31T05:24:05;3.87;;;3.30;;
2624;SDS011;1322;53.256;10.386;2023-07-31T05:26:31;3.67;;;3.33;;
2624;SDS011;1322;53.256;10.386;2023-07-31T05:28:56;3.90;;;3.60;;
2624;SDS011;1322;53.256;10.386;2023-07-31T05:31:23;4.30;;;3.70;;
2624;SDS011;1322;53.256;10.386;2023-07-31T05:33:49;4.10;;;3.70;;
2624;SDS011;1322;53.256;10.386;2023-07-31T05:36:15;4.40;;;3.60;;
2624;SDS011;1322;53.256;10.386;2023-07-31T05:38:41;5.10;;;3.37;;
2624;SDS011;1322;53.256;10.386;2023-07-31T05:41:09;5.57;;;3.30;;
2624;SDS011;1322;53.256;10.386;2023-07-31T05:43:36;7.10;;;3.90;;
2624;SDS011;1322;53.256;10.386;2023-07-31T05:46:01;4.20;;;3.80;;
2624;SDS011;1322;53.256;10.386;2023-07-31T05:48:27;4.20;;;3.37;;
2624;SDS011;1322;53.256;10.386;2023-07-31T05:50:52;9.00;;;3.80;;
2624;SDS011;1322;53.256;10.386;2023-07-31T05:53:18;4.10;;;3.30;;
2624;SDS011;1322;53.256;10.386;2023-07-31T05:55:44;4.53;;;3.37;;
2624;SDS011;1322;53.256;10.386;2023-07-31T05:58:09;4.60;;;3.73;;
2624;SDS011;1322;53.256;10.386;2023-07-31T06:00:35;4.37;;;3.43;;
2624;SDS011;1322;53.256;10.386;2023-07-31T06:03:01;4.93;;;3.17;;
2624;SDS011;1322;53.256;10.386;2023-07-31T06:05:27;3.00;;;2.70;;
2624;SDS011;1322;53.256;10.386;2023-07-31T06:07:54;3.80;;;2.83;;
2624;SDS011;1322;53.256;10.386;2023-07-31T06:10:20;2.90;;;2.70;;
2624;SDS011;1322;53.256;10.386;2023-07-31T06:12:46;2.80;;;2.50;;
2624;SDS011;1322;53.256;10.386;2023-07-31T06:15:12;2.67;;;2.47;;
2624;SDS011;1322;53.256;10.386;2023-07-31T06:17:38;3.13;;;2.33;;
2624;SDS011;1322;53.256;10.386;2023-07-31T06:20:03;3.50;;;2.63;;
2624;SDS011;1322;53.256;10.386;2023-07-31T06:22:31;2.50;;;2.30;;
2624;SDS011;1322;53.256;10.386;2023-07-31T06:24:57;3.00;;;2.53;;
2624;SDS011;1322;53.256;10.386;2023-07-31T06:27:23;2.43;;;2.17;;
2624;SDS011;1322;53.256;10.386;2023-07-31T06:29:48;2.63;;;2.30;;
2624;SDS011;1322;53.256;10.386;2023-07-31T06:32:14;2.93;;;2.47;;
2624;SDS011;1322;53.256;10.386;2023-07-31T06:34:39;2.30;;;1.90;;
2624;SDS011;1322;53.256;10.386;2023-07-31T06:37:05;2.30;;;2.10;;
2624;SDS011;1322;53.256;10.386;2023-07-31T06:39:31;2.60;;;2.40;;
2624;SDS011;1322;53.256;10.386;2023-07-31T06:41:56;2.57;;;2.00;;
2624;SDS011;1322;53.256;10.386;2023-07-31T06:44:22;2.00;;;1.80;;
2624;SDS011;1322;53.256;10.386;2023-07-31T06:46:48;4.90;;;2.87;;
2624;SDS011;1322;53.256;10.386;2023-07-31T06:49:13;2.90;;;1.80;;
2624;SDS011;1322;53.256;10.386;2023-07-31T06:51:40;2.33;;;1.77;;
2624;SDS011;1322;53.256;10.386;2023-07-31T06:54:06;2.73;;;1.90;;
2624;SDS011;1322;53.256;10.386;2023-07-31T06:56:33;2.60;;;1.80;;
2624;SDS011;1322;53.256;10.386;2023-07-31T06:58:58;2.07;;;1.53;;
2624;SDS011;1322;53.256;10.386;2023-07-31T07:01:24;2.03;;;1.60;;
2624;SDS011;1322;53.256;10.386;2023-07-31T07:03:49;3.40;;;1.70;;
2624;SDS011;1322;53.256;10.386;2023-07-31T07:06:18;2.20;;;1.50;;
2624;SDS011;1322;53.256;10.386;2023-07-31T07:08:44;2.60;;;1.60;;
2624;SDS011;1322;53.256;10.386;2023-07-31T07:11:10;2.13;;;1.70;;
2624;SDS011;1322;53.256;10.386;2023-07-31T07:13:36;2.70;;;1.70;;
2624;SDS011;1322;53.256;10.386;2023-07-31T07:16:01;1.70;;;1.27;;
2624;SDS011;1322;53.256;10.386;2023-07-31T07:18:27;2.13;;;1.40;;
2624;SDS011;1322;53.256;10.386;2023-07-31T07:20:53;2.43;;;1.57;;
2624;SDS011;1322;53.256;10.386;2023-07-31T07:23:20;1.60;;;1.30;;
2624;SDS011;1322;53.256;10.386;2023-07-31T07:25:46;2.20;;;1.47;;
2624;SDS011;1322;53.256;10.386;2023-07-31T07:28:12;1.53;;;1.20;;
2624;SDS011;1322;53.256;10.386;2023-07-31T07:30:38;2.50;;;1.60;;
2624;SDS011;1322;53.256;10.386;2023-07-31T07:33:04;2.10;;;1.53;;
2624;SDS011;1322;53.256;10.386;2023-07-31T07:35:29;2.43;;;1.50;;
2624;SDS011;1322;53.256;10.386;2023-07-31T07:37:55;2.20;;;1.50;;
2624;SDS011;1322;53.256;10.386;2023-07-31T07:40:21;1.83;;;1.30;;
2624;SDS011;1322;53.256;10.386;2023-07-31T07:42:47;3.00;;;1.60;;
2624;SDS011;1322;53.256;10.386;2023-07-31T07:45:13;2.80;;;1.60;;
2624;SDS011;1322;53.256;10.386;2023-07-31T07:47:42;2.33;;;1.50;;
2624;SDS011;1322;53.256;10.386;2023-07-31T07:50:07;2.67;;;1.23;;
2624;SDS011;1322;53.256;10.386;2023-07-31T07:52:33;1.87;;;1.20;;
2624;SDS011;1322;53.256;10.386;2023-07-31T07:54:59;1.90;;;1.17;;
2624;SDS011;1322;53.256;10.386;2023-07-31T07:57:25;1.80;;;1.27;;
2624;SDS011;1322;53.256;10.386;2023-07-31T07:59:51;1.93;;;1.53;;
2624;SDS011;1322;53.256;10.386;2023-07-31T08:02:16;2.50;;;1.47;;
2624;SDS011;1322;53.256;10.386;2023-07-31T08:04:42;1.70;;;1.30;;
2624;SDS011;1322;53.256;10.386;2023-07-31T08:07:10;4.87;;;1.77;;
2624;SDS011;1322;53.256;10.386;2023-07-31T08:09:37;1.50;;;1.00;;
2624;SDS011;1322;53.256;10.386;2023-07-31T08:12:02;2.07;;;1.07;;
2624;SDS011;1322;53.256;10.386;2023-07-31T08:14:29;1.90;;;1.30;;
2624;SDS011;1322;53.256;10.386;2023-07-31T08:16:55;1.50;;;1.03;;
2624;SDS011;1322;53.256;10.386;2023-07-31T08:19:20;1.40;;;1.00;;
2624;SDS011;1322;53.256;10.386;2023-07-31T08:21:46;2.23;;;1.27;;
2624;SDS011;1322;53.256;10.386;2023-07-31T08:24:12;1.73;;;1.17;;
2624;SDS011;1322;53.256;10.386;2023-07-31T08:26:37;2.97;;;1.27;;
2624;SDS011;1322;53.256;10.386;2023-07-31T08:29:03;1.80;;;1.30;;
2624;SDS011;1322;53.256;10.386;2023-07-31T08:31:29;1.63;;;1.23;;
2624;SDS011;1322;53.256;10.386;2023-07-31T08:33:55;1.70;;;1.27;;
2624;SDS011;1322;53.256;10.386;2023-07-31T08:36:21;2.30;;;1.20;;
2624;SDS011;1322;53.256;10.386;2023-07-31T08:38:46;2.20;;;1.13;;
2624;SDS011;1322;53.256;10.386;2023-07-31T08:41:12;2.50;;;1.10;;
2624;SDS011;1322;53.256;10.386;2023-07-31T08:43:42;2.23;;;1.37;;
2624;SDS011;1322;53.256;10.386;2023-07-31T08:46:10;1.40;;;1.00;;
2624;SDS011;1322;53.256;10.386;2023-07-31T08:48:36;1.40;;;1.00;;
2624;SDS011;1322;53.256;10.386;2023-07-31T08:51:05;1.60;;;1.10;;
2624;SDS011;1322;53.256;10.386;2023-07-31T08:53:32;1.97;;;1.20;;
2624;SDS011;1322;53.256;10.386;2023-07-31T08:55:58;1.47;;;0.90;;
2624;SDS011;1322;53.256;10.386;2023-07-31T08:58:24;1.83;;;1.30;;
2624;SDS011;1322;53.256;10.386;2023-07-31T09:00:52;1.50;;;1.20;;
2624;SDS011;1322;53.256;10.386;2023-07-31T09:03:19;1.40;;;0.90;;
2624;SDS011;1322;53.256;10.386;2023-07-31T09:05:50;2.07;;;1.30;;
2624;SDS011;1322;53.256;10.386;2023-07-31T09:08:17;1.40;;;1.03;;
2624;SDS011;1322;53.256;10.386;2023-07-31T09:10:45;3.00;;;0.97;;
2624;SDS011;1322;53.256;10.386;2023-07-31T09:13:11;1.40;;;0.83;;
2624;SDS011;1322;53.256;10.386;2023-07-31T09:15:38;1.23;;;0.70;;
2624;SDS011;1322;53.256;10.386;2023-07-31T09:18:05;1.33;;;0.90;;
2624;SDS011;1322;53.256;10.386;2023-07-31T09:20:32;1.30;;;0.87;;
2624;SDS011;1322;53.256;10.386;2023-07-31T09:23:08;1.70;;;1.10;;
2624;SDS011;1322;53.256;10.386;2023-07-31T09:25:35;2.10;;;1.00;;
2624;SDS011;1322;53.256;10.386;2023-07-31T09:28:04;1.50;;;0.90;;
2624;SDS011;1322;53.256;10.386;2023-07-31T09:30:32;1.97;;;1.50;;
2624;SDS011;1322;53.256;10.386;2023-07-31T09:33:16;4.97;;;1.60;;
2624;SDS011;1322;53.256;10.386;2023-07-31T09:35:43;3.23;;;1.60;;
2624;SDS011;1322;53.256;10.386;2023-07-31T09:38:12;4.10;;;2.20;;
2624;SDS011;1322;53.256;10.386;2023-07-31T09:40:42;4.60;;;2.13;;
2624;SDS011;1322;53.256;10.386;2023-07-31T09:43:19;2.73;;;2.10;;
2624;SDS011;1322;53.256;10.386;2023-07-31T09:45:45;4.90;;;2.70;;
2624;SDS011;1322;53.256;10.386;2023-07-31T09:48:13;4.30;;;3.37;;
2624;SDS011;1322;53.256;10.386;2023-07-31T09:50:43;5.73;;;4.00;;
2624;SDS011;1322;53.256;10.386;2023-07-31T09:53:13;4.83;;;3.30;;
2624;SDS011;1322;53.256;10.386;2023-07-31T09:55:39;4.37;;;3.60;;
2624;SDS011;1322;53.256;10.386;2023-07-31T09:58:07;6.23;;;4.23;;
2624;SDS011;1322;53.256;10.386;2023-07-31T10:00:34;8.83;;;4.27;;
2624;SDS011;1322;53.256;10.386;2023-07-31T10:03:10;9.00;;;5.90;;
2624;SDS011;1322;53.256;10.386;2023-07-31T10:05:49;7.80;;;5.13;;
2624;SDS011;1322;53.256;10.386;2023-07-31T10:08:16;9.77;;;5.07;;
2624;SDS011;1322;53.256;10.386;2023-07-31T10:10:45;7.37;;;4.87;;
2624;SDS011;1322;53.256;10.386;2023-07-31T10:13:11;9.97;;;6.00;;
2624;SDS011;1322;53.256;10.386;2023-07-31T10:15:38;9.00;;;5.37;;
2624;SDS011;1322;53.256;10.386;2023-07-31T10:18:06;15.07;;;5.90;;
2624;SDS011;1322;53.256;10.386;2023-07-31T10:20:32;7.07;;;4.87;;
2624;SDS011;1322;53.256;10.386;2023-07-31T10:22:58;11.60;;;5.80;;
2624;SDS011;1322;53.256;10.386;2023-07-31T10:25:26;8.07;;;5.77;;
2624;SDS011;1322;53.256;10.386;2023-07-31T10:27:52;11.73;;;5.60;;
2624;SDS011;1322;53.256;10.386;2023-07-31T10:30:20;10.37;;;5.67;;
2624;SDS011;1322;53.256;10.386;2023-07-31T10:32:50;13.57;;;5.63;;
2624;SDS011;1322;53.256;10.386;2023-07-31T10:35:17;8.97;;;5.40;;
2624;SDS011;1322;53.256;10.386;2023-07-31T10:37:43;9.23;;;5.80;;
2624;SDS011;1322;53.256;10.386;2023-07-31T10:40:10;8.43;;;5.47;;
2624;SDS011;1322;53.256;10.386;2023-07-31T10:42:49;7.03;;;5.40;;
2624;SDS011;1322;53.256;10.386;2023-07-31T10:48:04;7.53;;;4.90;;
2624;SDS011;1322;53.256;10.386;2023-07-31T10:50:50;8.40;;;5.77;;
2624;SDS011;1322;53.256;10.386;2023-07-31T10:53:29;8.97;;;5.47;;
2624;SDS011;1322;53.256;10.386;2023-07-31T10:55:59;10.10;;;6.20;;
2624;SDS011;1322;53.256;10.386;2023-07-31T10:58:26;6.00;;;4.70;;
2624;SDS011;1322;53.256;10.386;2023-07-31T11:00:55;5.50;;;4.50;;
2624;SDS011;1322;53.256;10.386;2023-07-31T11:03:25;10.83;;;5.27;;
2624;SDS011;1322;53.256;10.386;2023-07-31T11:06:06;12.77;;;4.97;;
2624;SDS011;1322;53.256;10.386;2023-07-31T11:08:32;10.63;;;4.43;;
2624;SDS011;1322;53.256;10.386;2023-07-31T11:13:28;7.60;;;4.10;;
2624;SDS011;1322;53.256;10.386;2023-07-31T11:16:07;6.93;;;4.53;;
2624;SDS011;1322;53.256;10.386;2023-07-31T11:18:33;7.70;;;4.50;;
2624;SDS011;1322;53.256;10.386;2023-07-31T11:20:59;7.80;;;5.50;;
2624;SDS011;1322;53.256;10.386;2023-07-31T11:23:25;5.40;;;4.40;;
2624;SDS011;1322;53.256;10.386;2023-07-31T11:25:50;6.90;;;4.00;;
2624;SDS011;1322;53.256;10.386;2023-07-31T11:28:17;6.23;;;3.90;;
2624;SDS011;1322;53.256;10.386;2023-07-31T11:30:44;7.10;;;4.70;;
2624;SDS011;1322;53.256;10.386;2023-07-31T11:33:12;6.27;;;4.73;;
2624;SDS011;1322;53.256;10.386;2023-07-31T11:35:43;7.07;;;4.57;;
2624;SDS011;1322;53.256;10.386;2023-07-31T11:38:11;7.50;;;3.40;;
2624;SDS011;1322;53.256;10.386;2023-07-31T11:40:45;8.23;;;3.67;;
2624;SDS011;1322;53.256;10.386;2023-07-31T11:43:11;7.67;;;3.23;;
2624;SDS011;1322;53.256;10.386;2023-07-31T11:45:41;4.23;;;3.40;;
2624;SDS011;1322;53.256;10.386;2023-07-31T11:48:09;4.63;;;3.40;;
2624;SDS011;1322;53.256;10.386;2023-07-31T11:50:35;3.90;;;3.10;;
2624;SDS011;1322;53.256;10.386;2023-07-31T11:53:02;6.10;;;3.20;;
2624;SDS011;1322;53.256;10.386;2023-07-31T11:55:32;4.70;;;3.20;;
2624;SDS011;1322;53.256;10.386;2023-07-31T11:57:58;5.00;;;4.50;;
2624;SDS011;1322;53.256;10.386;2023-07-31T12:00:25;6.70;;;2.93;;
2624;SDS011;1322;53.256;10.386;2023-07-31T12:02:51;3.07;;;2.30;;
2624;SDS011;1322;53.256;10.386;2023-07-31T12:05:17;3.70;;;3.07;;
2624;SDS011;1322;53.256;10.386;2023-07-31T12:07:54;2.70;;;2.10;;
2624;SDS011;1322;53.256;10.386;2023-07-31T12:10:23;3.03;;;2.60;;
2624;SDS011;1322;53.256;10.386;2023-07-31T12:13:00;2.60;;;2.07;;
2624;SDS011;1322;53.256;10.386;2023-07-31T12:15:32;2.63;;;2.43;;
2624;SDS011;1322;53.256;10.386;2023-07-31T12:18:09;4.37;;;2.03;;
2624;SDS011;1322;53.256;10.386;2023-07-31T12:20:40;3.70;;;2.00;;
2624;SDS011;1322;53.256;10.386;2023-07-31T12:23:07;7.97;;;2.30;;
2624;SDS011;1322;53.256;10.386;2023-07-31T12:25:44;4.03;;;2.37;;
2624;SDS011;1322;53.256;10.386;2023-07-31T12:28:10;3.10;;;2.67;;
2624;SDS011;1322;53.256;10.386;2023-07-31T12:30:39;5.40;;;3.07;;
2624;SDS011;1322;53.256;10.386;2023-07-31T12:33:14;3.20;;;2.10;;
2624;SDS011;1322;53.256;10.386;2023-07-31T12:35:41;2.50;;;2.20;;
2624;SDS011;1322;53.256;10.386;2023-07-31T12:38:08;2.53;;;2.20;;
2624;SDS011;1322;53.256;10.386;2023-07-31T12:40:36;2.00;;;1.57;;
2624;SDS011;1322;53.256;10.386;2023-07-31T12:43:03;3.17;;;2.57;;
2624;SDS011;1322;53.256;10.386;2023-07-31T12:45:30;2.30;;;2.07;;
2624;SDS011;1322;53.256;10.386;2023-07-31T12:47:56;2.53;;;1.70;;
2624;SDS011;1322;53.256;10.386;2023-07-31T12:50:22;2.23;;;1.87;;
2624;SDS011;1322;53.256;10.386;2023-07-31T12:52:48;2.00;;;1.77;;
2624;SDS011;1322;53.256;10.386;2023-07-31T12:55:14;2.20;;;1.80;;
2624;SDS011;1322;53.256;10.386;2023-07-31T12:57:40;2.90;;;2.10;;
2624;SDS011;1322;53.256;10.386;2023-07-31T13:00:07;2.83;;;1.83;;
2624;SDS011;1322;53.256;10.386;2023-07-31T13:02:33;5.57;;;1.77;;
2624;SDS011;1322;53.256;10.386;2023-07-31T13:04:59;3.47;;;2.10;;
2624;SDS011;1322;53.256;10.386;2023-07-31T13:07:24;2.47;;;2.07;;
2624;SDS011;1322;53.256;10.386;2023-07-31T13:09:50;2.53;;;2.00;;
2624;SDS011;1322;53.256;10.386;2023-07-31T13:12:16;3.00;;;1.90;;
2624;SDS011;1322;53.256;10.386;2023-07-31T13:14:42;2.80;;;1.90;;
2624;SDS011;1322;53.256;10.386;2023-07-31T13:17:07;2.53;;;1.97;;
2624;SDS011;1322;53.256;10.386;2023-07-31T13:19:33;4.40;;;1.93;;
2624;SDS011;1322;53.256;10.386;2023-07-31T13:21:58;3.37;;;2.43;;
2624;SDS011;1322;53.256;10.386;2023-07-31T13:24:24;2.27;;;2.00;;
2624;SDS011;1322;53.256;10.386;2023-07-31T13:26:50;2.43;;;2.23;;
2624;SDS011;1322;53.256;10.386;2023-07-31T13:29:15;2.60;;;1.73;;
2624;SDS011;1322;53.256;10.386;2023-07-31T13:31:41;2.50;;;1.97;;
2624;SDS011;1322;53.256;10.386;2023-07-31T13:34:06;2.57;;;2.17;;
2624;SDS011;1322;53.256;10.386;2023-07-31T13:36:32;6.10;;;2.20;;
2624;SDS011;1322;53.256;10.386;2023-07-31T13:38:59;2.87;;;2.07;;
2624;SDS011;1322;53.256;10.386;2023-07-31T13:41:25;2.20;;;1.80;;
2624;SDS011;1322;53.256;10.386;2023-07-31T13:43:51;2.43;;;1.40;;
2624;SDS011;1322;53.256;10.386;2023-07-31T13:46:16;2.43;;;1.70;;
2624;SDS011;1322;53.256;10.386;2023-07-31T13:48:42;1.77;;;1.50;;
2624;SDS011;1322;53.256;10.386;2023-07-31T13:51:08;3.73;;;2.03;;
2624;SDS011;1322;53.256;10.386;2023-07-31T13:53:33;2.00;;;1.47;;
2624;SDS011;1322;53.256;10.386;2023-07-31T13:55:59;1.87;;;1.67;;
2624;SDS011;1322;53.256;10.386;2023-07-31T13:58:24;2.37;;;1.40;;
2624;SDS011;1322;53.256;10.386;2023-07-31T14:00:50;2.07;;;1.73;;
2624;SDS011;1322;53.256;10.386;2023-07-31T14:03:16;2.43;;;1.90;;
2624;SDS011;1322;53.256;10.386;2023-07-31T14:05:41;1.70;;;1.50;;
2624;SDS011;1322;53.256;10.386;2023-07-31T14:08:07;1.67;;;1.30;;
2624;SDS011;1322;53.256;10.386;2023-07-31T14:10:32;1.80;;;1.60;;
2624;SDS011;1322;53.256;10.386;2023-07-31T14:12:58;1.90;;;1.37;;
2624;SDS011;1322;53.256;10.386;2023-07-31T14:15:24;2.17;;;1.60;;
2624;SDS011;1322;53.256;10.386;2023-07-31T14:17:49;2.07;;;1.33;;
2624;SDS011;1322;53.256;10.386;2023-07-31T14:20:15;1.97;;;1.50;;
2624;SDS011;1322;53.256;10.386;2023-07-31T14:22:40;3.40;;;1.80;;
2624;SDS011;1322;53.256;10.386;2023-07-31T14:25:06;2.40;;;1.70;;
2624;SDS011;1322;53.256;10.386;2023-07-31T14:27:35;3.90;;;1.80;;
2624;SDS011;1322;53.256;10.386;2023-07-31T14:30:01;2.10;;;1.90;;
2624;SDS011;1322;53.256;10.386;2023-07-31T14:32:27;2.60;;;2.10;;
2624;SDS011;1322;53.256;10.386;2023-07-31T14:34:52;3.17;;;2.73;;
2624;SDS011;1322;53.256;10.386;2023-07-31T14:37:19;3.03;;;2.47;;
2624;SDS011;1322;53.256;10.386;2023-07-31T14:39:45;5.73;;;2.57;;
2624;SDS011;1322;53.256;10.386;2023-07-31T14:42:10;2.50;;;2.10;;
2624;SDS011;1322;53.256;10.386;2023-07-31T14:44:36;4.27;;;2.83;;
2624;SDS011;1322;53.256;10.386;2023-07-31T14:47:02;2.83;;;2.53;;
2624;SDS011;1322;53.256;10.386;2023-07-31T14:49:27;4.67;;;2.47;;
2624;SDS011;1322;53.256;10.386;2023-07-31T14:51:53;2.50;;;2.23;;
2624;SDS011;1322;53.256;10.386;2023-07-31T14:54:19;2.97;;;2.60;;
2624;SDS011;1322;53.256;10.386;2023-07-31T14:56:45;4.73;;;2.83;;
2624;SDS011;1322;53.256;10.386;2023-07-31T14:59:11;3.90;;;3.37;;
2624;SDS011;1322;53.256;10.386;2023-07-31T15:01:37;2.63;;;2.37;;
2624;SDS011;1322;53.256;10.386;2023-07-31T15:04:03;3.80;;;3.40;;
2624;SDS011;1322;53.256;10.386;2023-07-31T15:06:28;3.50;;;2.90;;
2624;SDS011;1322;53.256;10.386;2023-07-31T15:08:54;3.40;;;3.10;;